createdAt,value
2019-02-04T00:02:27.176Z,23.47
2019-02-04T00:04:58.800Z,22.80
2019-02-04T00:07:30.439Z,22.97
2019-02-04T00:10:01.843Z,22.20
2019-02-04T00:12:33.745Z,23.10
2019-02-04T00:15:07.991Z,26.03
2019-02-04T00:17:40.770Z,26.53
2019-02-04T00:20:13.231Z,27.80
2019-02-04T00:22:45.020Z,28.83
2019-02-04T00:25:17.137Z,28.50
2019-02-04T00:27:48.838Z,29.87
2019-02-04T00:30:21.467Z,29.43
2019-02-04T00:32:52.978Z,28.83
2019-02-04T00:35:24.286Z,28.73
2019-02-04T00:37:55.666Z,28.60
2019-02-04T00:40:46.574Z,28.57
2019-02-04T00:43:17.890Z,27.20
2019-02-04T00:45:51.286Z,27.10
2019-02-04T00:48:23.019Z,28.87
2019-02-04T00:50:54.601Z,28.97
2019-02-04T00:53:26.374Z,31.57
2019-02-04T00:55:58.124Z,30.00
2019-02-04T00:58:30.103Z,30.50
2019-02-04T01:01:01.729Z,30.43
2019-02-04T01:03:33.088Z,29.37
2019-02-04T01:06:04.537Z,31.83
2019-02-04T01:08:36.697Z,30.88
2019-02-04T01:11:08.218Z,29.13
2019-02-04T01:13:39.528Z,28.20
2019-02-04T01:16:10.810Z,29.30
2019-02-04T01:18:44.125Z,30.05
2019-02-04T01:21:15.453Z,27.93
2019-02-04T01:23:46.842Z,30.10
2019-02-04T01:26:18.377Z,30.80
2019-02-04T01:28:49.733Z,29.73
2019-02-04T01:31:21.058Z,31.90
2019-02-04T01:33:52.712Z,31.77
2019-02-04T01:36:25.001Z,33.70
2019-02-04T01:38:56.997Z,30.30
2019-02-04T01:41:28.910Z,32.53
2019-02-04T01:44:00.296Z,34.23
2019-02-04T01:46:32.063Z,32.60
2019-02-04T01:49:04.095Z,31.60
2019-02-04T01:51:35.799Z,31.73
2019-02-04T01:54:07.308Z,32.33
2019-02-04T01:56:38.787Z,32.70
2019-02-04T01:59:11.324Z,32.00
2019-02-04T02:01:42.608Z,35.10
2019-02-04T02:04:14.320Z,36.20
2019-02-04T02:06:46.116Z,38.17
2019-02-04T02:09:26.976Z,41.67
2019-02-04T02:11:58.413Z,44.50
2019-02-04T02:14:30.419Z,45.50
2019-02-04T02:17:02.121Z,47.00
2019-02-04T02:19:34.350Z,44.33
2019-02-04T02:22:06.520Z,41.17
2019-02-04T02:24:37.898Z,39.67
2019-02-04T02:27:09.282Z,39.53
2019-02-04T02:29:40.621Z,37.70
2019-02-04T02:32:12.152Z,37.03
2019-02-04T02:34:43.479Z,36.57
2019-02-04T02:37:15.035Z,37.40
2019-02-04T02:39:46.660Z,35.57
2019-02-04T02:42:18.391Z,35.27
2019-02-04T02:44:49.998Z,33.43
2019-02-04T02:47:21.459Z,32.80
2019-02-04T02:49:53.303Z,31.13
2019-02-04T02:52:24.696Z,30.50
2019-02-04T02:54:56.075Z,31.23
2019-02-04T02:57:27.488Z,32.70
2019-02-04T02:59:58.779Z,31.67
2019-02-04T03:02:30.480Z,30.73
2019-02-04T03:05:01.878Z,30.07
2019-02-04T03:07:33.253Z,30.17
2019-02-04T03:10:05.052Z,30.37
2019-02-04T03:12:37.021Z,29.03
2019-02-04T03:15:09.669Z,29.27
2019-02-04T03:17:51.049Z,29.37
2019-02-04T03:20:14.511Z,27.77
2019-02-04T03:22:45.854Z,29.03
2019-02-04T03:25:17.225Z,28.67
2019-02-04T03:27:48.589Z,29.37
2019-02-04T03:30:29.743Z,29.93
2019-02-04T03:33:01.099Z,28.40
2019-02-04T03:35:32.967Z,27.40
2019-02-04T03:38:04.938Z,27.10
2019-02-04T03:40:36.260Z,26.57
2019-02-04T03:43:07.659Z,25.75
2019-02-04T03:45:39.239Z,23.60
2019-02-04T03:48:10.575Z,25.27
2019-02-04T03:50:42.257Z,25.37
2019-02-04T03:53:13.872Z,25.63
2019-02-04T03:55:45.217Z,26.17
2019-02-04T03:58:16.624Z,25.33
2019-02-04T04:00:48.305Z,26.13
2019-02-04T04:03:19.944Z,29.60
2019-02-04T04:05:51.505Z,26.93
2019-02-04T04:08:23.048Z,28.93
2019-02-04T04:10:55.178Z,28.92
2019-02-04T04:13:27.999Z,30.35
2019-02-04T04:15:59.681Z,30.30
2019-02-04T04:18:31.071Z,31.35
2019-02-04T04:21:02.631Z,28.63
2019-02-04T04:23:33.983Z,32.63
2019-02-04T04:26:06.295Z,32.65
2019-02-04T04:28:38.300Z,31.50
2019-02-04T04:31:09.709Z,31.07
2019-02-04T04:33:41.421Z,32.87
2019-02-04T04:36:13.079Z,33.08
2019-02-04T04:38:45.311Z,32.47
2019-02-04T04:41:17.279Z,30.13
2019-02-04T04:43:48.969Z,28.07
2019-02-04T04:46:20.701Z,27.10
2019-02-04T04:48:52.711Z,25.77
2019-02-04T04:51:24.636Z,25.33
2019-02-04T04:53:55.963Z,24.43
2019-02-04T04:56:28.089Z,23.15
2019-02-04T04:58:59.480Z,23.53
2019-02-04T05:01:31.252Z,19.87
2019-02-04T05:04:02.694Z,20.60
2019-02-04T05:06:34.052Z,19.48
2019-02-04T05:09:07.501Z,18.83
2019-02-04T05:11:38.820Z,17.62
2019-02-04T05:14:10.593Z,19.15
2019-02-04T05:16:41.977Z,19.07
2019-02-04T05:19:13.301Z,18.27
2019-02-04T05:21:44.705Z,16.93
2019-02-04T05:24:16.014Z,18.77
2019-02-04T05:26:47.641Z,18.80
2019-02-04T05:29:19.146Z,17.70
2019-02-04T05:31:50.476Z,18.57
2019-02-04T05:34:21.963Z,17.53
2019-02-04T05:36:53.519Z,17.70
2019-02-04T05:39:25.190Z,18.97
2019-02-04T05:41:56.524Z,17.87
2019-02-04T05:44:27.928Z,18.93
2019-02-04T05:47:00.546Z,18.70
2019-02-04T05:49:31.984Z,19.00
2019-02-04T05:52:03.547Z,18.80
2019-02-04T05:54:34.892Z,19.43
2019-02-04T05:57:06.352Z,18.50
2019-02-04T05:59:37.780Z,20.95
2019-02-04T06:02:09.634Z,20.00
2019-02-04T06:04:41.044Z,22.60
2019-02-04T06:07:15.341Z,20.37
2019-02-04T06:09:45.778Z,20.17
2019-02-04T06:12:17.182Z,20.13
2019-02-04T06:14:48.597Z,21.23
2019-02-04T06:17:20.423Z,21.50
2019-02-04T06:19:52.080Z,20.90
2019-02-04T06:22:23.919Z,21.40
2019-02-04T06:24:55.321Z,23.30
2019-02-04T06:27:27.061Z,23.30
2019-02-04T06:29:58.439Z,22.90
2019-02-04T06:32:29.845Z,22.93
2019-02-04T06:35:01.175Z,22.57
2019-02-04T06:37:32.545Z,21.65
2019-02-04T06:40:06.737Z,22.10
2019-02-04T06:42:38.335Z,22.00
2019-02-04T06:45:12.592Z,22.27
2019-02-04T06:47:44.014Z,22.20
2019-02-04T06:50:17.084Z,22.03
2019-02-04T06:52:48.475Z,20.63
2019-02-04T06:55:29.421Z,20.50
2019-02-04T06:58:00.851Z,20.53
2019-02-04T07:00:32.810Z,21.33
2019-02-04T07:03:04.634Z,21.80
2019-02-04T07:05:43.515Z,21.80
2019-02-04T07:08:09.926Z,19.87
2019-02-04T07:10:41.654Z,20.33
2019-02-04T07:13:12.981Z,21.70
2019-02-04T07:15:45.031Z,21.83
2019-02-04T07:18:16.359Z,20.67
2019-02-04T07:20:47.724Z,21.20
2019-02-04T07:23:19.704Z,20.10
2019-02-04T07:25:51.424Z,20.47
2019-02-04T07:28:22.779Z,20.47
2019-02-04T07:30:54.184Z,19.57
2019-02-04T07:33:26.178Z,19.30
2019-02-04T07:35:57.816Z,19.83
2019-02-04T07:38:29.289Z,20.57
2019-02-04T07:41:01.251Z,19.47
2019-02-04T07:43:32.911Z,20.53
2019-02-04T07:46:04.397Z,19.77
2019-02-04T07:48:37.627Z,21.03
2019-02-04T07:51:08.933Z,20.77
2019-02-04T07:57:16.218Z,19.40
2019-02-04T07:59:47.460Z,18.90
2019-02-04T08:02:18.740Z,17.27
2019-02-04T08:04:50.137Z,17.10
2019-02-04T08:07:21.731Z,17.10
2019-02-04T08:09:53.021Z,16.00
2019-02-04T08:12:25.473Z,16.05
2019-02-04T08:14:57.081Z,15.47
2019-02-04T08:17:28.505Z,15.63
2019-02-04T08:19:59.973Z,13.83
2019-02-04T08:22:31.673Z,18.97
2019-02-04T08:25:03.275Z,13.87
2019-02-04T08:27:34.617Z,13.80
2019-02-04T08:30:08.075Z,13.23
2019-02-04T08:32:39.398Z,12.03
2019-02-04T08:35:11.192Z,12.17
2019-02-04T08:37:42.807Z,10.87
2019-02-04T08:40:14.783Z,12.77
2019-02-04T08:42:47.891Z,10.25
2019-02-04T08:45:19.399Z,10.37
2019-02-04T08:47:51.288Z,11.50
2019-02-04T08:50:23.408Z,11.03
2019-02-04T08:52:55.175Z,9.97
2019-02-04T08:55:26.471Z,10.07
2019-02-04T08:57:58.312Z,9.40
2019-02-04T09:00:29.886Z,10.00
2019-02-04T09:03:01.759Z,10.20
2019-02-04T09:05:33.302Z,9.87
2019-02-04T09:08:04.988Z,9.70
2019-02-04T09:10:36.705Z,9.80
2019-02-04T09:13:08.064Z,9.50
2019-02-04T09:15:39.712Z,9.17
2019-02-04T09:18:11.123Z,8.70
2019-02-04T09:20:42.558Z,9.10
2019-02-04T09:23:14.168Z,8.73
2019-02-04T09:25:45.786Z,9.50
2019-02-04T09:28:17.632Z,9.23
2019-02-04T09:30:49.324Z,9.00
2019-02-04T09:33:20.673Z,9.07
2019-02-04T09:35:52.703Z,8.20
2019-02-04T09:38:24.298Z,9.33
2019-02-04T09:40:55.574Z,8.40
2019-02-04T09:43:27.068Z,8.40
2019-02-04T09:45:58.368Z,9.40
2019-02-04T09:48:29.704Z,7.90
2019-02-04T09:51:03.326Z,8.90
2019-02-04T09:53:35.400Z,8.85
2019-02-04T09:56:07.311Z,8.23
2019-02-04T09:58:38.676Z,8.53
2019-02-04T10:01:10.208Z,8.50
2019-02-04T10:03:41.860Z,8.20
2019-02-04T10:06:13.406Z,8.00
2019-02-04T10:08:44.858Z,8.53
2019-02-04T10:11:16.517Z,7.97
2019-02-04T10:13:48.510Z,7.00
2019-02-04T10:16:19.890Z,7.55
2019-02-04T10:18:52.289Z,7.60
2019-02-04T10:21:24.122Z,7.50
2019-02-04T10:23:55.480Z,7.23
2019-02-04T10:26:27.017Z,6.80
2019-02-04T10:28:58.319Z,7.45
2019-02-04T10:31:29.635Z,7.17
2019-02-04T10:34:01.215Z,6.73
2019-02-04T10:36:32.619Z,6.17
2019-02-04T10:39:05.285Z,6.67
2019-02-04T10:41:36.587Z,6.37
2019-02-04T10:44:08.450Z,6.07
2019-02-04T10:46:40.025Z,5.42
2019-02-04T10:49:11.406Z,5.87
2019-02-04T10:51:42.757Z,5.80
2019-02-04T10:54:15.188Z,5.97
2019-02-04T10:56:46.837Z,5.27
2019-02-04T10:59:18.493Z,6.30
2019-02-04T11:01:50.074Z,6.10
2019-02-04T11:04:21.701Z,5.43
2019-02-04T11:06:53.054Z,5.90
2019-02-04T11:09:24.598Z,5.77
2019-02-04T11:11:56.634Z,6.03
2019-02-04T11:14:28.409Z,6.60
2019-02-04T11:16:59.728Z,6.50
2019-02-04T11:19:31.139Z,6.20
2019-02-04T11:22:02.918Z,6.73
2019-02-04T11:24:34.590Z,6.37
2019-02-04T11:27:06.842Z,6.73
2019-02-04T11:29:38.960Z,6.20
2019-02-04T11:32:10.524Z,6.63
2019-02-04T11:34:42.147Z,6.63
2019-02-04T11:37:15.194Z,6.85
2019-02-04T11:39:47.321Z,6.27
2019-02-04T11:42:18.773Z,6.67
2019-02-04T11:44:50.118Z,6.70
2019-02-04T11:47:21.622Z,6.77
2019-02-04T11:49:53.907Z,6.40
2019-02-04T11:52:25.727Z,6.27
2019-02-04T11:54:57.446Z,7.03
2019-02-04T11:57:28.813Z,6.63
2019-02-04T12:00:00.215Z,6.90
2019-02-04T12:02:34.693Z,6.90
2019-02-04T12:05:05.972Z,7.37
2019-02-04T12:07:37.467Z,7.07
2019-02-04T12:10:12.174Z,6.63
2019-02-04T12:12:43.528Z,7.00
2019-02-04T12:15:17.644Z,7.50
2019-02-04T12:17:49.372Z,7.20
2019-02-04T12:20:21.340Z,7.20
2019-02-04T12:22:52.798Z,7.67
2019-02-04T12:25:26.510Z,7.53
2019-02-04T12:27:58.582Z,7.60
2019-02-04T12:30:36.312Z,7.67
2019-02-04T12:33:10.171Z,7.00
2019-02-04T12:35:41.502Z,7.55
2019-02-04T12:38:13.184Z,7.63
2019-02-04T12:40:44.835Z,7.10
2019-02-04T12:43:16.419Z,7.33
2019-02-04T12:45:48.603Z,7.00
2019-02-04T12:48:20.331Z,6.83
2019-02-04T12:50:51.992Z,6.93
2019-02-04T12:53:23.419Z,7.40
2019-02-04T12:55:55.020Z,7.97
2019-02-04T12:58:26.316Z,8.40
2019-02-04T13:00:57.653Z,7.87
2019-02-04T13:03:31.643Z,8.25
2019-02-04T13:06:04.116Z,7.80
2019-02-04T13:08:36.217Z,8.37
2019-02-04T13:11:07.976Z,7.77
2019-02-04T13:13:39.320Z,8.00
2019-02-04T13:16:11.881Z,7.97
2019-02-04T13:18:43.453Z,8.30
2019-02-04T13:21:14.786Z,7.87
2019-02-04T13:23:46.938Z,8.50
2019-02-04T13:26:18.234Z,8.17
2019-02-04T13:28:49.679Z,9.00
2019-02-04T13:31:21.069Z,8.40
2019-02-04T13:33:52.528Z,8.53
2019-02-04T13:36:23.864Z,8.53
2019-02-04T13:38:55.786Z,8.30
2019-02-04T13:41:27.108Z,7.83
2019-02-04T13:43:58.411Z,8.43
2019-02-04T13:46:29.859Z,8.53
2019-02-04T13:49:01.207Z,8.27
2019-02-04T13:51:32.488Z,8.30
2019-02-04T13:54:03.833Z,8.25
2019-02-04T13:56:35.144Z,8.40
2019-02-04T13:59:06.657Z,8.60
2019-02-04T14:01:38.009Z,8.40
2019-02-04T14:04:09.429Z,8.50
2019-02-04T14:06:40.753Z,8.33
2019-02-04T14:09:20.210Z,8.18
2019-02-04T14:11:51.910Z,8.40
2019-02-04T14:14:23.609Z,8.37
2019-02-04T14:16:54.946Z,9.00
2019-02-04T14:19:26.951Z,7.90
2019-02-04T14:22:08.662Z,9.17
2019-02-04T14:24:31.674Z,8.97
2019-02-04T14:27:03.854Z,8.67
2019-02-04T14:29:35.184Z,8.40
2019-02-04T14:32:07.319Z,8.63
2019-02-04T14:34:38.648Z,7.97
2019-02-04T14:37:10.012Z,7.97
2019-02-04T14:39:41.564Z,8.07
2019-02-04T14:42:17.664Z,8.35
2019-02-04T14:45:58.078Z,8.33
2019-02-04T14:49:23.525Z,7.90
2019-02-04T14:52:32.601Z,8.23
2019-02-04T14:56:02.565Z,8.05
2019-02-04T14:59:29.116Z,7.70
2019-02-04T15:02:53.456Z,7.70
2019-02-04T15:06:08.954Z,7.60
2019-02-04T15:09:11.367Z,7.67
2019-02-04T15:12:48.864Z,6.67
2019-02-04T15:16:26.270Z,6.33
2019-02-04T15:19:52.706Z,6.80
2019-02-04T15:23:14.372Z,5.80
2019-02-04T15:26:42.867Z,6.30
2019-02-04T15:30:03.881Z,6.43
2019-02-04T15:33:45.421Z,5.93
2019-02-04T15:36:53.136Z,6.70
2019-02-04T15:40:08.485Z,6.00
2019-02-04T15:43:28.140Z,6.50
2019-02-04T15:47:06.477Z,6.30
2019-02-04T15:50:22.519Z,6.67
2019-02-04T15:52:54.233Z,6.23
2019-02-04T15:55:25.558Z,6.80
2019-02-04T15:57:56.862Z,6.57
2019-02-04T16:00:28.688Z,6.20
2019-02-04T16:03:00.410Z,6.33
2019-02-04T16:05:31.837Z,6.37
2019-02-04T16:08:03.218Z,6.93
2019-02-04T16:10:34.870Z,6.30
2019-02-04T16:13:06.896Z,5.60
2019-02-04T16:15:38.399Z,6.10
2019-02-04T16:18:09.692Z,5.83
2019-02-04T16:20:41.074Z,5.70
2019-02-04T16:23:12.504Z,5.97
2019-02-04T16:25:43.812Z,6.20
2019-02-04T16:28:15.257Z,5.43
2019-02-04T16:30:46.930Z,5.93
2019-02-04T16:33:18.264Z,6.03
2019-02-04T16:35:49.592Z,6.00
2019-02-04T16:38:21.276Z,6.10
2019-02-04T16:40:52.565Z,6.10
2019-02-04T16:43:24.245Z,6.10
2019-02-04T16:45:57.154Z,5.50
2019-02-04T16:48:28.429Z,5.58
2019-02-04T16:51:11.284Z,5.63
2019-02-04T16:53:33.015Z,5.53
2019-02-04T16:56:04.402Z,6.30
2019-02-04T16:58:36.046Z,6.27
2019-02-04T17:01:07.695Z,5.57
2019-02-04T17:03:39.739Z,6.17
2019-02-04T17:06:11.802Z,6.47
2019-02-04T17:08:43.132Z,6.30
2019-02-04T17:11:14.409Z,6.13
2019-02-04T17:13:45.719Z,5.90
2019-02-04T17:16:17.435Z,5.60
2019-02-04T17:18:49.209Z,5.60
2019-02-04T17:21:20.549Z,6.00
2019-02-04T17:23:51.952Z,6.30
2019-02-04T17:26:23.292Z,5.43
2019-02-04T17:28:54.602Z,5.83
2019-02-04T17:31:25.966Z,5.25
2019-02-04T17:33:57.341Z,5.63
2019-02-04T17:36:29.002Z,5.25
2019-02-04T17:39:00.737Z,5.50
2019-02-04T17:41:32.326Z,5.80
2019-02-04T17:44:04.051Z,6.57
2019-02-04T17:46:35.622Z,5.47
2019-02-04T17:49:08.360Z,5.50
2019-02-04T17:51:40.236Z,6.00
2019-02-04T17:54:11.939Z,5.60
2019-02-04T17:56:43.206Z,6.20
2019-02-04T17:59:15.058Z,6.53
2019-02-04T18:01:46.808Z,6.57
2019-02-04T18:04:18.937Z,6.30
2019-02-04T18:06:50.267Z,9.38
2019-02-04T18:09:22.621Z,8.40
2019-02-04T18:11:53.973Z,6.33
2019-02-04T18:14:25.612Z,5.90
2019-02-04T18:16:56.938Z,6.83
2019-02-04T18:19:28.641Z,5.63
2019-02-04T18:22:00.609Z,5.90
2019-02-04T18:24:32.015Z,5.50
2019-02-04T18:27:03.597Z,5.70
2019-02-04T18:29:34.903Z,5.60
2019-02-04T18:32:06.481Z,5.93
2019-02-04T18:34:37.778Z,5.23
2019-02-04T18:37:09.472Z,5.53
2019-02-04T18:39:40.805Z,5.77
2019-02-04T18:42:12.104Z,5.37
2019-02-04T18:44:44.403Z,5.27
2019-02-04T18:47:16.091Z,5.70
2019-02-04T18:49:47.683Z,5.17
2019-02-04T18:52:19.682Z,5.00
2019-02-04T18:54:51.536Z,5.33
2019-02-04T18:57:23.132Z,5.40
2019-02-04T18:59:54.464Z,5.47
2019-02-04T19:02:25.800Z,5.97
2019-02-04T19:04:57.120Z,5.63
2019-02-04T19:07:28.561Z,5.93
2019-02-04T19:10:00.201Z,5.47
2019-02-04T19:12:31.541Z,5.77
2019-02-04T19:15:02.846Z,5.60
2019-02-04T19:17:34.496Z,5.33
2019-02-04T19:20:06.856Z,5.13
2019-02-04T19:22:38.370Z,6.10
2019-02-04T19:25:11.074Z,5.20
2019-02-04T19:27:42.802Z,5.57
2019-02-04T19:30:47.356Z,5.70
2019-02-04T19:33:18.856Z,5.77
2019-02-04T19:35:50.372Z,5.30
2019-02-04T19:38:21.779Z,5.27
2019-02-04T19:40:53.991Z,5.00
2019-02-04T19:43:25.391Z,5.40
2019-02-04T19:45:56.739Z,5.80
2019-02-04T19:48:28.070Z,5.77
2019-02-04T19:50:59.398Z,5.00
2019-02-04T19:53:31.101Z,5.15
2019-02-04T19:56:02.853Z,5.40
2019-02-04T19:58:34.211Z,5.63
2019-02-04T20:01:06.761Z,4.55
2019-02-04T20:03:38.050Z,5.70
2019-02-04T20:06:09.626Z,4.80
2019-02-04T20:08:41.622Z,4.90
2019-02-04T20:11:12.981Z,5.00
2019-02-04T20:13:44.609Z,4.60
2019-02-04T20:16:15.958Z,5.12
2019-02-04T20:18:48.032Z,5.13
2019-02-04T20:21:19.369Z,4.40
2019-02-04T20:23:50.715Z,4.67
2019-02-04T20:26:22.203Z,4.50
2019-02-04T20:28:53.553Z,4.70
2019-02-04T20:31:24.976Z,3.87
2019-02-04T20:33:56.320Z,4.30
2019-02-04T20:36:28.264Z,4.33
2019-02-04T20:38:59.613Z,4.60
2019-02-04T20:41:30.941Z,4.67
2019-02-04T20:44:02.620Z,4.57
2019-02-04T20:46:34.201Z,4.28
2019-02-04T20:49:06.182Z,4.70
2019-02-04T20:51:37.793Z,4.37
2019-02-04T20:54:19.455Z,4.67
2019-02-04T20:56:42.205Z,4.57
2019-02-04T20:59:13.741Z,4.30
2019-02-04T21:01:45.406Z,4.30
2019-02-04T21:04:16.719Z,4.47
2019-02-04T21:06:55.788Z,4.17
2019-02-04T21:09:21.192Z,4.17
2019-02-04T21:11:52.594Z,4.50
2019-02-04T21:14:23.907Z,4.30
2019-02-04T21:16:55.556Z,4.00
2019-02-04T21:19:26.940Z,4.67
2019-02-04T21:21:58.639Z,4.27
2019-02-04T21:24:30.418Z,4.30
2019-02-04T21:27:02.487Z,4.20
2019-02-04T21:29:33.796Z,4.23
2019-02-04T21:32:05.186Z,4.30
2019-02-04T21:34:36.488Z,4.20
2019-02-04T21:37:08.347Z,4.40
2019-02-04T21:39:39.685Z,4.60
2019-02-04T21:42:11.005Z,4.37
2019-02-04T21:44:42.300Z,4.23
2019-02-04T21:47:13.922Z,4.25
2019-02-04T21:49:45.850Z,4.37
2019-02-04T21:52:17.129Z,4.03
2019-02-04T21:54:48.770Z,3.90
2019-02-04T21:57:20.225Z,3.83
2019-02-04T21:59:51.907Z,4.13
2019-02-04T22:02:23.794Z,3.80
2019-02-04T22:04:55.418Z,3.57
2019-02-04T22:07:26.795Z,3.90
2019-02-04T22:09:58.497Z,4.33
2019-02-04T22:12:30.243Z,4.17
2019-02-04T22:15:01.580Z,4.20
2019-02-04T22:17:33.592Z,4.50
2019-02-04T22:20:06.813Z,4.30
2019-02-04T22:22:38.616Z,3.95
2019-02-04T22:25:19.474Z,4.50
2019-02-04T22:27:44.182Z,4.17
2019-02-04T22:30:22.185Z,4.80
2019-02-04T22:32:53.526Z,4.50
2019-02-04T22:35:25.126Z,4.60
2019-02-04T22:37:56.766Z,4.53
2019-02-04T22:40:30.304Z,4.67
2019-02-04T22:43:01.976Z,3.87
2019-02-04T22:45:33.655Z,4.47
2019-02-04T22:48:05.075Z,4.33
2019-02-04T22:50:36.383Z,4.17
2019-02-04T22:53:08.247Z,4.20
2019-02-04T22:55:39.592Z,4.60
2019-02-04T22:58:11.228Z,3.87
2019-02-04T23:01:15.221Z,4.28
2019-02-04T23:03:46.532Z,4.40
2019-02-04T23:06:18.116Z,3.85
2019-02-04T23:08:49.487Z,4.50
2019-02-04T23:11:21.386Z,3.93
2019-02-04T23:13:53.480Z,3.87
2019-02-04T23:16:25.497Z,3.97
2019-02-04T23:18:56.964Z,3.63
2019-02-04T23:21:28.601Z,3.90
2019-02-04T23:24:00.057Z,3.90
2019-02-04T23:26:31.542Z,3.40
2019-02-04T23:29:02.845Z,3.73
2019-02-04T23:31:34.207Z,3.90
2019-02-04T23:34:06.370Z,3.72
2019-02-04T23:36:38.163Z,3.92
2019-02-04T23:39:11.407Z,4.27
2019-02-04T23:41:42.745Z,4.00
2019-02-04T23:44:14.110Z,3.80
2019-02-04T23:46:46.274Z,3.58
2019-02-04T23:49:17.867Z,3.70
2019-02-04T23:51:49.172Z,4.07
2019-02-04T23:54:20.463Z,3.87
2019-02-04T23:56:52.237Z,3.67
2019-02-04T23:59:23.952Z,4.00
